Alstead Center, New Hampshire
Current Conditions -  °F | °C
As of 11:35 PM on Thursday 18 Dec 2014 (Local Time) from KEEN Reporting Station
Overcast Overcast  
Wind Chill: 28°   Ceiling: 4500
Heat Index: 34°   Visibility: 10mi
Dew Point: 25°   Wind: 7mph
Humidity: 70%   Direction: 330°NNW
Pressure: 29.87"   Gusts: NA
Location:  43.1141°N, 72.3097°W
Report Text: KEEN 190435Z AUTO 33006KT 10SM FEW029 OVC045 01/M04 A2987 RMK AO1
Loading
Personal Weather Stations






























Interactive Weather Map New forecast layout! Learn more

10-Day Weather Forecast

Advertisements
Track Severe Weather on mobile